ENFL/FRO METAR and TAF weather

Enter ICAO airport designator
Station Type Date Time Source
ENFL METAR 2018/04/26 14:50 UTC NOAA

ENFL 261450Z 10005KT 080V150 9999 VCSH FEW010 SCT015 BKN022 07/04 Q1001


Station Type Date Time Source
ENFL Decoded METAR 2018/04/26 14:50 UTC NOAA

Floro, Norway (ENFL) 61-35N 005-02E 9M
Apr 26, 2018 - 10:50 AM EDT / 2018.04.26 1450 UTC
Wind: from the E (100 degrees) at 6 MPH (5 KT) (direction variable):0
Visibility: greater than 7 mile(s):0
Sky conditions: mostly cloudy
Weather: showers in the vicinity
Temperature: 44 F (7 C)
Dew Point: 39 F (4 C)
Relative Humidity: 81%
Pressure (altimeter): 29.56 in. Hg (1001 hPa)
ob: ENFL 261450Z 10005KT 080V150 9999 VCSH FEW010 SCT015 BKN022 07/04 Q1001
cycle: 15

Station Type Date Time Source
ENFL TAF 2010/02/05 07:50 UTC NOAA

METAR ENFL 050750Z 16019KT 140V200 9999 FEW015 SCT030 BKN055 03/M03 Q1011


Example: see airport list